createdAt,value
2022-07-28T00:00:12.367Z,976.18
2022-07-28T00:01:12.268Z,976.24
2022-07-28T00:02:12.309Z,976.15
2022-07-28T00:03:12.288Z,976.20
2022-07-28T00:04:12.498Z,976.19
2022-07-28T00:05:12.292Z,976.18
2022-07-28T00:06:12.238Z,976.24
2022-07-28T00:07:12.220Z,976.20
2022-07-28T00:08:12.223Z,976.20
2022-07-28T00:09:12.206Z,976.18
2022-07-28T00:10:12.223Z,976.22
2022-07-28T00:11:12.167Z,976.21
2022-07-28T00:12:12.151Z,976.20
2022-07-28T00:13:12.187Z,976.20
2022-07-28T00:14:12.555Z,976.20
2022-07-28T00:15:12.127Z,976.21
2022-07-28T00:16:12.236Z,976.22
2022-07-28T00:17:12.101Z,976.19
2022-07-28T00:18:12.090Z,976.22
2022-07-28T00:19:12.139Z,976.21
2022-07-28T00:20:12.071Z,976.23
2022-07-28T00:21:12.078Z,976.20
2022-07-28T00:22:12.152Z,976.23
2022-07-28T00:23:12.026Z,976.22
2022-07-28T00:24:12.337Z,976.21
2022-07-28T00:25:12.011Z,976.20
2022-07-28T00:26:12.065Z,976.19
2022-07-28T00:27:11.971Z,976.21
2022-07-28T00:28:11.994Z,976.15
2022-07-28T00:29:11.991Z,976.13
2022-07-28T00:30:11.991Z,976.16
2022-07-28T00:31:13.850Z,976.15
2022-07-28T00:32:11.972Z,976.10
2022-07-28T00:33:11.962Z,976.15
2022-07-28T00:34:12.468Z,976.17
2022-07-28T00:35:11.973Z,976.17
2022-07-28T00:36:12.057Z,976.15
2022-07-28T00:37:13.415Z,976.10
2022-07-28T00:38:11.857Z,976.12
2022-07-28T00:39:11.862Z,976.11
2022-07-28T00:40:11.882Z,976.09
2022-07-28T00:41:11.817Z,976.09
2022-07-28T00:42:11.854Z,976.10
2022-07-28T00:43:11.784Z,976.05
2022-07-28T00:44:12.086Z,976.08
2022-07-28T00:45:11.762Z,976.07
2022-07-28T00:46:11.861Z,976.06
2022-07-28T00:47:11.773Z,976.08
2022-07-28T00:48:11.757Z,976.06
2022-07-28T00:49:11.784Z,976.03
2022-07-28T00:50:11.732Z,976.04
2022-07-28T00:51:11.723Z,976.05
2022-07-28T00:52:11.719Z,975.99
2022-07-28T00:53:11.685Z,976.03
2022-07-28T00:54:11.977Z,976.02
2022-07-28T00:55:11.675Z,976.00
2022-07-28T00:56:11.689Z,976.01
2022-07-28T00:57:11.663Z,975.97
2022-07-28T00:58:11.600Z,975.96
2022-07-28T00:59:11.626Z,975.99
2022-07-28T01:00:11.610Z,975.96
2022-07-28T01:01:11.609Z,975.92
2022-07-28T01:02:11.750Z,975.95
2022-07-28T01:03:11.684Z,975.90
2022-07-28T01:04:12.038Z,975.91
2022-07-28T01:05:11.536Z,975.90
2022-07-28T01:06:11.585Z,975.84
2022-07-28T01:07:11.589Z,975.86
2022-07-28T01:08:11.504Z,975.88
2022-07-28T01:09:11.504Z,975.87
2022-07-28T01:10:11.492Z,975.87
2022-07-28T01:11:11.488Z,975.91
2022-07-28T01:12:11.464Z,975.86
2022-07-28T01:13:11.490Z,975.98
2022-07-28T01:14:11.813Z,975.96
2022-07-28T01:15:11.418Z,975.88
2022-07-28T01:16:11.420Z,975.93
2022-07-28T01:17:11.849Z,975.88
2022-07-28T01:18:11.431Z,975.85
2022-07-28T01:19:11.424Z,975.93
2022-07-28T01:20:11.361Z,975.92
2022-07-28T01:21:11.358Z,975.88
2022-07-28T01:22:11.337Z,975.86
2022-07-28T01:23:11.362Z,975.76
2022-07-28T01:24:11.615Z,975.81
2022-07-28T01:25:11.299Z,975.80
2022-07-28T01:26:11.678Z,975.81
2022-07-28T01:27:11.274Z,975.81
2022-07-28T01:28:11.348Z,975.86
2022-07-28T01:29:11.327Z,975.81
2022-07-28T01:30:11.238Z,975.78
2022-07-28T01:31:11.312Z,975.73
2022-07-28T01:32:11.227Z,975.76
2022-07-28T01:33:11.206Z,975.83
2022-07-28T01:34:11.441Z,975.80
2022-07-28T01:35:11.228Z,975.85
2022-07-28T01:36:11.180Z,975.82
2022-07-28T01:37:11.184Z,975.86
2022-07-28T01:38:11.175Z,975.83
2022-07-28T01:39:11.170Z,975.94
2022-07-28T01:40:11.147Z,975.86
2022-07-28T01:41:11.152Z,975.88
2022-07-28T01:42:11.088Z,975.85
2022-07-28T01:43:13.306Z,975.82
2022-07-28T01:44:11.349Z,975.78
2022-07-28T01:45:11.053Z,975.87
2022-07-28T01:46:11.108Z,975.79
2022-07-28T01:47:11.095Z,975.84
2022-07-28T01:48:11.035Z,975.83
2022-07-28T01:49:11.153Z,975.79
2022-07-28T01:50:11.029Z,975.87
2022-07-28T01:51:11.020Z,975.88
2022-07-28T01:52:10.984Z,975.84
2022-07-28T01:53:10.994Z,975.84
2022-07-28T01:54:11.257Z,975.85
2022-07-28T01:55:10.989Z,975.89
2022-07-28T01:56:10.946Z,975.84
2022-07-28T01:57:10.940Z,975.78
2022-07-28T01:58:10.924Z,975.80
2022-07-28T01:59:10.897Z,975.79
2022-07-28T02:00:10.915Z,975.75
2022-07-28T02:01:10.974Z,975.75
2022-07-28T02:02:10.871Z,975.80
2022-07-28T02:03:10.839Z,975.75
2022-07-28T02:04:11.190Z,975.70
2022-07-28T02:05:10.914Z,975.72
2022-07-28T02:06:10.831Z,975.66
2022-07-28T02:07:10.813Z,975.71
2022-07-28T02:08:10.791Z,975.64
2022-07-28T02:09:10.825Z,975.64
2022-07-28T02:10:10.812Z,975.63
2022-07-28T02:11:10.758Z,975.64
2022-07-28T02:12:11.550Z,975.58
2022-07-28T02:13:10.759Z,975.69
2022-07-28T02:14:10.949Z,975.70
2022-07-28T02:15:10.774Z,975.59
2022-07-28T02:16:10.757Z,975.64
2022-07-28T02:17:10.704Z,975.65
2022-07-28T02:18:10.868Z,975.60
2022-07-28T02:19:10.666Z,975.62
2022-07-28T02:20:10.644Z,975.68
2022-07-28T02:21:11.980Z,975.66
2022-07-28T02:22:10.619Z,975.64
2022-07-28T02:23:10.636Z,975.65
2022-07-28T02:24:10.871Z,975.65
2022-07-28T02:25:10.633Z,975.64
2022-07-28T02:26:10.621Z,975.68
2022-07-28T02:27:10.572Z,975.67
2022-07-28T02:28:10.561Z,975.64
2022-07-28T02:29:27.447Z,975.64
2022-07-28T02:30:12.578Z,975.55
2022-07-28T02:31:10.615Z,975.64
2022-07-28T02:32:26.860Z,975.59
2022-07-28T02:33:10.529Z,975.63
2022-07-28T02:34:10.567Z,975.59
2022-07-28T02:35:10.488Z,975.57
2022-07-28T02:36:10.494Z,975.60
2022-07-28T02:37:10.454Z,975.58
2022-07-28T02:38:10.484Z,975.63
2022-07-28T02:39:10.464Z,975.53
2022-07-28T02:40:10.454Z,975.58
2022-07-28T02:41:10.443Z,975.64
2022-07-28T02:42:10.395Z,975.58
2022-07-28T02:43:10.387Z,975.60
2022-07-28T02:44:10.516Z,975.62
2022-07-28T02:45:10.407Z,975.63
2022-07-28T02:46:10.448Z,975.59
2022-07-28T02:47:10.365Z,975.59
2022-07-28T02:48:10.346Z,975.55
2022-07-28T02:49:10.431Z,975.59
2022-07-28T02:50:10.326Z,975.56
2022-07-28T02:51:10.344Z,975.58
2022-07-28T02:52:10.274Z,975.55
2022-07-28T02:53:14.992Z,975.56
2022-07-28T02:54:10.359Z,975.54
2022-07-28T02:55:10.340Z,975.50
2022-07-28T02:56:10.237Z,975.56
2022-07-28T02:57:10.240Z,975.59
2022-07-28T02:58:10.215Z,975.53
2022-07-28T02:59:10.205Z,975.54
2022-07-28T03:00:10.213Z,975.59
2022-07-28T03:01:10.253Z,975.55
2022-07-28T03:02:10.209Z,975.58
2022-07-28T03:03:10.173Z,975.53
2022-07-28T03:04:10.214Z,975.59
2022-07-28T03:05:11.532Z,975.53
2022-07-28T03:06:10.108Z,975.54
2022-07-28T03:07:10.941Z,975.63
2022-07-28T03:08:10.122Z,975.55
2022-07-28T03:09:10.056Z,975.65
2022-07-28T03:10:10.067Z,975.68
2022-07-28T03:11:10.090Z,975.63
2022-07-28T03:12:10.087Z,975.65
2022-07-28T03:13:10.121Z,975.60
2022-07-28T03:14:10.175Z,975.61
2022-07-28T03:15:10.093Z,975.58
2022-07-28T03:16:10.001Z,975.57
2022-07-28T03:17:10.107Z,975.57
2022-07-28T03:18:09.982Z,975.56
2022-07-28T03:19:09.966Z,975.58
2022-07-28T03:20:09.978Z,975.59
2022-07-28T03:21:10.019Z,975.63
2022-07-28T03:22:10.374Z,975.62
2022-07-28T03:23:09.917Z,975.59
2022-07-28T03:24:10.058Z,975.58
2022-07-28T03:25:09.900Z,975.61
2022-07-28T03:26:09.886Z,975.58
2022-07-28T03:27:09.878Z,975.56
2022-07-28T03:28:09.897Z,975.60
2022-07-28T03:29:09.833Z,975.64
2022-07-28T03:30:09.869Z,975.61
2022-07-28T03:31:09.862Z,975.57
2022-07-28T03:32:09.826Z,975.61
2022-07-28T03:33:09.840Z,975.62
2022-07-28T03:34:09.789Z,975.63
2022-07-28T03:35:09.785Z,975.54
2022-07-28T03:36:10.757Z,975.52
2022-07-28T03:37:09.739Z,975.52
2022-07-28T03:38:09.770Z,975.55
2022-07-28T03:39:09.739Z,975.56
2022-07-28T03:40:09.722Z,975.60
2022-07-28T03:41:09.727Z,975.53
2022-07-28T03:42:09.690Z,975.58
2022-07-28T03:43:09.745Z,975.56
2022-07-28T03:44:09.669Z,975.60
2022-07-28T03:45:09.661Z,975.56
2022-07-28T03:46:13.135Z,975.59
2022-07-28T03:47:09.629Z,975.56
2022-07-28T03:48:09.711Z,975.60
2022-07-28T03:49:09.683Z,975.57
2022-07-28T03:50:09.588Z,975.60
2022-07-28T03:51:09.591Z,975.55
2022-07-28T03:52:09.605Z,975.58
2022-07-28T03:53:09.560Z,975.64
2022-07-28T03:54:09.615Z,975.63
2022-07-28T03:55:09.541Z,975.64
2022-07-28T03:56:09.545Z,975.67
2022-07-28T03:57:09.547Z,975.67
2022-07-28T03:58:09.519Z,975.61
2022-07-28T03:59:09.530Z,975.64
2022-07-28T04:00:09.948Z,975.62
2022-07-28T04:01:09.503Z,975.59
2022-07-28T04:02:09.885Z,975.65
2022-07-28T04:03:35.788Z,975.69
2022-07-28T04:04:10.550Z,975.64
2022-07-28T04:05:09.449Z,975.67
2022-07-28T04:06:09.433Z,975.67
2022-07-28T04:07:09.451Z,975.66
2022-07-28T04:08:09.924Z,975.71
2022-07-28T04:09:09.422Z,975.69
2022-07-28T04:10:09.391Z,975.65
2022-07-28T04:11:09.640Z,975.64
2022-07-28T04:12:10.150Z,975.68
2022-07-28T04:13:09.354Z,975.63
2022-07-28T04:14:13.217Z,975.64
2022-07-28T04:15:10.335Z,975.69
2022-07-28T04:16:09.315Z,975.69
2022-07-28T04:17:09.322Z,975.68
2022-07-28T04:18:09.281Z,975.69
2022-07-28T04:19:09.301Z,975.69
2022-07-28T04:20:09.483Z,975.64
2022-07-28T04:21:09.250Z,975.68
2022-07-28T04:22:09.259Z,975.68
2022-07-28T04:23:09.223Z,975.67
2022-07-28T04:24:09.261Z,975.71
2022-07-28T04:25:09.209Z,975.65
2022-07-28T04:26:09.862Z,975.58
2022-07-28T04:27:09.184Z,975.61
2022-07-28T04:28:09.928Z,975.68
2022-07-28T04:29:09.200Z,975.62
2022-07-28T04:30:12.046Z,975.66
2022-07-28T04:31:09.190Z,975.59
2022-07-28T04:32:09.130Z,975.59
2022-07-28T04:33:09.106Z,975.64
2022-07-28T04:34:09.124Z,975.57
2022-07-28T04:35:09.103Z,975.56
2022-07-28T04:36:09.091Z,975.52
2022-07-28T04:37:09.069Z,975.51
2022-07-28T04:38:09.049Z,975.49
2022-07-28T04:39:09.073Z,975.49
2022-07-28T04:40:09.026Z,975.55
2022-07-28T04:41:09.011Z,975.52
2022-07-28T04:42:09.021Z,975.53
2022-07-28T04:43:08.980Z,975.55
2022-07-28T04:44:09.030Z,975.50
2022-07-28T04:45:08.991Z,975.53
2022-07-28T04:46:11.988Z,975.52
2022-07-28T04:47:08.956Z,975.61
2022-07-28T04:48:08.920Z,975.60
2022-07-28T04:49:08.979Z,975.60
2022-07-28T04:50:08.921Z,975.53
2022-07-28T04:51:08.899Z,975.53
2022-07-28T04:52:08.909Z,975.58
2022-07-28T04:53:08.873Z,975.61
2022-07-28T04:54:08.859Z,975.61
2022-07-28T04:55:09.891Z,975.59
2022-07-28T04:56:08.849Z,975.60
2022-07-28T04:57:12.014Z,975.57
2022-07-28T04:58:09.420Z,975.61
2022-07-28T04:59:08.806Z,975.59
2022-07-28T05:00:08.822Z,975.59
2022-07-28T05:01:08.827Z,975.59
2022-07-28T05:02:08.770Z,975.63
2022-07-28T05:03:08.750Z,975.61
2022-07-28T05:04:08.790Z,975.58
2022-07-28T05:05:08.852Z,975.60
2022-07-28T05:06:09.339Z,975.55
2022-07-28T05:07:12.812Z,975.63
2022-07-28T05:08:08.695Z,975.54
2022-07-28T05:09:08.700Z,975.58
2022-07-28T05:10:08.710Z,975.54
2022-07-28T05:11:08.705Z,975.56
2022-07-28T05:12:08.668Z,975.58
2022-07-28T05:13:08.635Z,975.52
2022-07-28T05:14:08.647Z,975.55
2022-07-28T05:15:09.212Z,975.57
2022-07-28T05:16:08.651Z,975.56
2022-07-28T05:17:09.144Z,975.57
2022-07-28T05:18:08.605Z,975.62
2022-07-28T05:19:08.596Z,975.56
2022-07-28T05:20:08.631Z,975.66
2022-07-28T05:21:08.563Z,975.62
2022-07-28T05:22:08.550Z,975.63
2022-07-28T05:23:08.572Z,975.59
2022-07-28T05:24:08.529Z,975.56
2022-07-28T05:25:08.557Z,975.61
2022-07-28T05:26:08.517Z,975.61
2022-07-28T05:27:08.483Z,975.62
2022-07-28T05:28:08.468Z,975.62
2022-07-28T05:29:08.476Z,975.63
2022-07-28T05:30:08.461Z,975.67
2022-07-28T05:31:08.449Z,975.64
2022-07-28T05:32:16.986Z,975.66
2022-07-28T05:33:08.420Z,975.70
2022-07-28T05:34:08.420Z,975.70
2022-07-28T05:35:08.399Z,975.64
2022-07-28T05:36:08.447Z,975.63
2022-07-28T05:37:08.367Z,975.57
2022-07-28T05:38:10.989Z,975.66
2022-07-28T05:39:08.348Z,975.65
2022-07-28T05:40:08.323Z,975.65
2022-07-28T05:41:08.345Z,975.64
2022-07-28T05:42:08.302Z,975.60
2022-07-28T05:43:08.303Z,975.67
2022-07-28T05:44:08.289Z,975.69
2022-07-28T05:45:16.467Z,975.65
2022-07-28T05:46:08.344Z,975.68
2022-07-28T05:47:08.254Z,975.69
2022-07-28T05:48:08.257Z,975.69
2022-07-28T05:49:08.285Z,975.71
2022-07-28T05:50:08.310Z,975.73
2022-07-28T05:51:08.217Z,975.75
2022-07-28T05:52:08.187Z,975.73
2022-07-28T05:53:08.189Z,975.71
2022-07-28T05:54:08.186Z,975.78
2022-07-28T05:55:08.172Z,975.74
2022-07-28T05:56:08.196Z,975.75
2022-07-28T05:57:08.131Z,975.76
2022-07-28T05:58:08.134Z,975.77
2022-07-28T05:59:08.142Z,975.83
2022-07-28T06:00:08.142Z,975.73
2022-07-28T06:01:08.190Z,975.74
2022-07-28T06:02:08.122Z,975.66
2022-07-28T06:03:08.093Z,975.68
2022-07-28T06:04:26.662Z,975.69
2022-07-28T06:05:10.068Z,975.72
2022-07-28T06:06:15.653Z,975.69
2022-07-28T06:07:08.065Z,975.69
2022-07-28T06:08:08.023Z,975.66
2022-07-28T06:09:07.998Z,975.69
2022-07-28T06:10:08.007Z,975.65
2022-07-28T06:11:07.992Z,975.63
2022-07-28T06:12:08.009Z,975.71
2022-07-28T06:13:07.948Z,975.67
2022-07-28T06:14:07.961Z,975.70
2022-07-28T06:15:07.938Z,975.70
2022-07-28T06:16:43.318Z,975.75
2022-07-28T06:17:08.299Z,975.69
2022-07-28T06:18:08.119Z,975.70
2022-07-28T06:19:07.987Z,975.67
2022-07-28T06:20:07.907Z,975.66
2022-07-28T06:21:07.923Z,975.68
2022-07-28T06:22:07.890Z,975.65
2022-07-28T06:23:07.906Z,975.73
2022-07-28T06:24:07.880Z,975.61
2022-07-28T06:25:07.840Z,975.66
2022-07-28T06:26:07.877Z,975.59
2022-07-28T06:27:07.858Z,975.59
2022-07-28T06:28:07.822Z,975.62
2022-07-28T06:29:07.826Z,975.64
2022-07-28T06:30:07.825Z,975.59
2022-07-28T06:31:07.846Z,975.64
2022-07-28T06:32:07.807Z,975.59
2022-07-28T06:33:07.789Z,975.65
2022-07-28T06:34:07.739Z,975.58
2022-07-28T06:35:07.736Z,975.56
2022-07-28T06:36:07.717Z,975.57
2022-07-28T06:37:07.800Z,975.65
2022-07-28T06:38:07.709Z,975.64
2022-07-28T06:39:07.719Z,975.65
2022-07-28T06:40:07.736Z,975.64
2022-07-28T06:41:07.685Z,975.63
2022-07-28T06:42:07.704Z,975.68
2022-07-28T06:43:07.675Z,975.74
2022-07-28T06:44:08.446Z,975.69
2022-07-28T06:45:07.663Z,975.77
2022-07-28T06:46:07.623Z,975.68
2022-07-28T06:47:07.645Z,975.69
2022-07-28T06:48:07.614Z,975.76
2022-07-28T06:49:07.685Z,975.71
2022-07-28T06:50:07.576Z,975.69
2022-07-28T06:51:07.563Z,975.71
2022-07-28T06:52:07.579Z,975.67
2022-07-28T06:53:07.618Z,975.75
2022-07-28T06:54:11.176Z,975.73
2022-07-28T06:55:07.522Z,975.70
2022-07-28T06:56:07.595Z,975.75
2022-07-28T06:57:07.538Z,975.66
2022-07-28T06:58:07.506Z,975.73
2022-07-28T06:59:07.472Z,975.75
2022-07-28T07:00:07.481Z,975.68
2022-07-28T07:08:11.674Z,975.64
2022-07-28T07:09:11.651Z,975.70
2022-07-28T07:10:11.667Z,975.75
2022-07-28T07:11:11.801Z,975.73
2022-07-28T07:12:12.767Z,975.76
2022-07-28T07:13:13.789Z,975.67
2022-07-28T07:14:13.662Z,975.69
2022-07-28T07:15:13.003Z,975.66
2022-07-28T07:23:05.279Z,975.59
2022-07-28T07:24:06.014Z,975.69
2022-07-28T07:25:05.560Z,975.69
2022-07-28T07:26:05.509Z,975.69
2022-07-28T07:27:05.441Z,975.62
2022-07-28T07:28:05.456Z,975.65
2022-07-28T07:29:05.393Z,975.66
2022-07-28T07:30:05.420Z,975.72
2022-07-28T07:31:05.730Z,975.71
2022-07-28T07:32:10.200Z,975.61
2022-07-28T07:33:07.878Z,975.66
2022-07-28T07:34:05.601Z,975.66
2022-07-28T07:35:05.343Z,975.66
2022-07-28T07:36:05.312Z,975.65
2022-07-28T07:37:05.356Z,975.65
2022-07-28T07:38:05.260Z,975.66
2022-07-28T07:39:05.308Z,975.70
2022-07-28T07:40:05.255Z,975.64
2022-07-28T07:41:05.263Z,975.60
2022-07-28T07:42:05.245Z,975.61
2022-07-28T07:43:05.227Z,975.64
2022-07-28T07:44:05.228Z,975.67
2022-07-28T07:45:05.211Z,975.63
2022-07-28T07:46:05.209Z,975.66
2022-07-28T07:47:05.267Z,975.64
2022-07-28T07:48:05.204Z,975.66
2022-07-28T07:49:05.253Z,975.68
2022-07-28T07:50:05.203Z,975.59
2022-07-28T07:51:05.200Z,975.60
2022-07-28T07:52:05.110Z,975.58
2022-07-28T07:53:05.155Z,975.64
2022-07-28T07:54:05.227Z,975.56
2022-07-28T07:55:05.162Z,975.50
2022-07-28T07:56:05.107Z,975.57
2022-07-28T07:57:05.056Z,975.56
2022-07-28T07:58:05.061Z,975.52
2022-07-28T07:59:05.093Z,975.52
2022-07-28T08:00:05.064Z,975.52
2022-07-28T08:01:05.005Z,975.51
2022-07-28T08:02:05.137Z,975.56
2022-07-28T08:03:11.084Z,975.49
2022-07-28T08:04:05.038Z,975.50
2022-07-28T08:05:05.016Z,975.45
2022-07-28T08:06:04.963Z,975.47
2022-07-28T08:07:04.939Z,975.41
2022-07-28T08:08:04.978Z,975.51
2022-07-28T08:09:04.937Z,975.47
2022-07-28T08:10:04.937Z,975.49
2022-07-28T08:11:04.943Z,975.47
2022-07-28T08:12:04.893Z,975.52
2022-07-28T08:13:04.869Z,975.45
2022-07-28T08:14:04.859Z,975.45
2022-07-28T08:15:04.865Z,975.42
2022-07-28T08:16:04.953Z,975.43
2022-07-28T08:17:04.892Z,975.39
2022-07-28T08:18:04.791Z,975.40
2022-07-28T08:19:04.779Z,975.45
2022-07-28T08:20:04.897Z,975.45
2022-07-28T08:21:04.820Z,975.39
2022-07-28T08:22:04.777Z,975.40
2022-07-28T08:23:05.337Z,975.39
2022-07-28T08:24:04.740Z,975.41
2022-07-28T08:25:04.765Z,975.33
2022-07-28T08:26:04.727Z,975.30
2022-07-28T08:27:04.689Z,975.33
2022-07-28T08:28:04.860Z,975.33
2022-07-28T08:29:04.646Z,975.32
2022-07-28T08:30:04.703Z,975.36
2022-07-28T08:31:04.725Z,975.28
2022-07-28T08:32:04.626Z,975.33
2022-07-28T08:33:04.684Z,975.26
2022-07-28T08:34:04.587Z,975.27
2022-07-28T08:35:31.689Z,975.31
2022-07-28T08:36:05.604Z,975.28
2022-07-28T08:37:04.568Z,975.25
2022-07-28T08:38:04.561Z,975.20
2022-07-28T08:39:04.562Z,975.28
2022-07-28T08:40:04.532Z,975.29
2022-07-28T08:41:04.561Z,975.28
2022-07-28T08:42:04.504Z,975.32
2022-07-28T08:43:04.480Z,975.27
2022-07-28T08:44:04.500Z,975.39
2022-07-28T08:45:04.471Z,975.27
2022-07-28T08:46:04.554Z,975.22
2022-07-28T08:47:04.478Z,975.35
2022-07-28T08:48:09.058Z,975.31
2022-07-28T08:49:05.470Z,975.27
2022-07-28T08:50:04.417Z,975.29
2022-07-28T08:51:04.427Z,975.29
2022-07-28T08:52:04.414Z,975.28
2022-07-28T08:53:04.406Z,975.28
2022-07-28T08:54:04.365Z,975.30
2022-07-28T08:55:04.355Z,975.26
2022-07-28T08:56:04.358Z,975.22
2022-07-28T08:57:04.320Z,975.26
2022-07-28T08:58:04.358Z,975.22
2022-07-28T08:59:04.291Z,975.22
2022-07-28T09:00:04.327Z,975.27
2022-07-28T09:01:04.292Z,975.24
2022-07-28T09:02:04.292Z,975.25
2022-07-28T09:03:04.356Z,975.20
2022-07-28T09:04:04.245Z,975.19
2022-07-28T09:05:54.860Z,975.24
2022-07-28T09:06:04.622Z,975.30
2022-07-28T09:07:04.202Z,975.21
2022-07-28T09:08:04.208Z,975.25
2022-07-28T09:09:04.187Z,975.27
2022-07-28T09:10:04.171Z,975.28
2022-07-28T09:11:04.182Z,975.31
2022-07-28T09:12:04.147Z,975.28
2022-07-28T09:13:04.150Z,975.29
2022-07-28T09:14:04.130Z,975.25
2022-07-28T09:15:04.456Z,975.30
2022-07-28T09:16:04.150Z,975.33
2022-07-28T09:17:05.444Z,975.28
2022-07-28T09:18:04.092Z,975.30
2022-07-28T09:19:04.140Z,975.29
2022-07-28T09:20:08.828Z,975.30
2022-07-28T09:21:05.050Z,975.36
2022-07-28T09:22:04.103Z,975.32
2022-07-28T09:23:04.055Z,975.32
2022-07-28T09:24:04.025Z,975.32
2022-07-28T09:25:04.003Z,975.25
2022-07-28T09:26:08.438Z,975.30
2022-07-28T09:27:03.969Z,975.34
2022-07-28T09:28:03.956Z,975.29
2022-07-28T09:29:03.951Z,975.24
2022-07-28T09:30:03.934Z,975.28
2022-07-28T09:31:03.920Z,975.33
2022-07-28T09:32:03.990Z,975.30
2022-07-28T09:33:03.894Z,975.32
2022-07-28T09:34:03.928Z,975.37
2022-07-28T09:35:03.852Z,975.32
2022-07-28T09:36:03.913Z,975.30
2022-07-28T09:37:03.943Z,975.34
2022-07-28T09:38:03.845Z,975.32
2022-07-28T09:39:03.890Z,975.36
2022-07-28T09:40:04.182Z,975.31
2022-07-28T09:41:03.835Z,975.36
2022-07-28T09:42:03.801Z,975.25
2022-07-28T09:43:03.776Z,975.29
2022-07-28T09:44:03.842Z,975.32
2022-07-28T09:45:21.971Z,975.31
2022-07-28T09:46:03.907Z,975.29
2022-07-28T09:47:03.836Z,975.28
2022-07-28T09:48:03.907Z,975.30
2022-07-28T09:49:03.935Z,975.32
2022-07-28T09:50:03.834Z,975.25
2022-07-28T09:51:03.673Z,975.22
2022-07-28T09:52:03.645Z,975.31
2022-07-28T09:53:03.692Z,975.31
2022-07-28T09:54:03.650Z,975.21
2022-07-28T09:57:57.250Z,975.18
2022-07-28T09:59:00.078Z,975.13
2022-07-28T09:59:57.564Z,975.10
2022-07-28T10:00:56.239Z,975.14
2022-07-28T10:01:56.522Z,975.09
2022-07-28T10:02:56.204Z,975.05
2022-07-28T10:03:56.194Z,975.08
2022-07-28T10:04:56.202Z,975.09
2022-07-28T10:05:56.164Z,975.05
2022-07-28T10:06:56.141Z,975.07
2022-07-28T10:07:56.136Z,975.03
2022-07-28T10:08:56.117Z,975.03
2022-07-28T10:09:56.198Z,975.03
2022-07-28T10:10:56.090Z,975.01
2022-07-28T10:11:56.097Z,974.95
2022-07-28T10:12:56.067Z,974.86
2022-07-28T10:13:56.058Z,974.93
2022-07-28T10:14:56.101Z,974.96
2022-07-28T10:15:56.087Z,974.95
2022-07-28T10:16:56.017Z,974.89
2022-07-28T10:17:56.012Z,974.89
2022-07-28T10:18:55.989Z,974.90
2022-07-28T10:19:56.006Z,974.83
2022-07-28T10:20:55.992Z,974.91
2022-07-28T10:21:55.961Z,974.81
2022-07-28T10:22:55.943Z,974.93
2022-07-28T10:23:55.935Z,974.88
2022-07-28T10:24:55.915Z,974.85
2022-07-28T10:25:55.960Z,974.90
2022-07-28T10:26:55.893Z,974.84
2022-07-28T10:27:55.888Z,974.92
2022-07-28T10:28:55.887Z,974.84
2022-07-28T10:29:55.863Z,974.79
2022-07-28T10:30:55.922Z,974.85
2022-07-28T10:31:55.877Z,974.84
2022-07-28T10:32:55.817Z,974.83
2022-07-28T10:33:55.854Z,974.89
2022-07-28T10:34:55.790Z,974.78
2022-07-28T10:35:55.929Z,974.77
2022-07-28T10:36:55.776Z,974.88
2022-07-28T10:37:55.787Z,974.84
2022-07-28T10:38:55.791Z,974.80
2022-07-28T10:39:55.741Z,974.73
2022-07-28T10:40:55.766Z,974.76
2022-07-28T10:41:55.716Z,974.87
2022-07-28T10:42:55.696Z,974.84
2022-07-28T10:43:55.695Z,974.81
2022-07-28T10:44:55.691Z,974.73
2022-07-28T10:46:05.435Z,974.77
2022-07-28T10:46:56.853Z,974.72
2022-07-28T10:47:56.771Z,974.73
2022-07-28T10:48:56.829Z,974.77
2022-07-28T10:49:56.744Z,974.81
2022-07-28T10:50:56.801Z,974.74
2022-07-28T10:52:08.858Z,974.70
2022-07-28T10:52:59.396Z,974.66
2022-07-28T10:53:56.733Z,974.68
2022-07-28T10:54:56.714Z,974.72
2022-07-28T10:55:56.685Z,974.68
2022-07-28T10:56:57.203Z,974.73
2022-07-28T10:58:02.342Z,974.81
2022-07-28T10:58:59.154Z,974.77
2022-07-28T10:59:58.553Z,974.68
2022-07-28T11:01:02.159Z,974.70
2022-07-28T11:01:58.784Z,974.65
2022-07-28T11:02:56.736Z,974.63
2022-07-28T11:03:56.706Z,974.63
2022-07-28T11:04:56.603Z,974.68
2022-07-28T11:05:56.573Z,974.69
2022-07-28T11:06:56.597Z,974.64
2022-07-28T11:07:56.540Z,974.64
2022-07-28T11:08:56.548Z,974.70
2022-07-28T11:09:56.534Z,974.66
2022-07-28T11:11:05.576Z,974.68
2022-07-28T11:11:56.542Z,974.67
2022-07-28T11:12:56.513Z,974.64
2022-07-28T11:13:56.501Z,974.61
2022-07-28T11:14:56.492Z,974.64
2022-07-28T11:15:56.459Z,974.59
2022-07-28T11:16:56.529Z,974.58
2022-07-28T11:17:56.460Z,974.60
2022-07-28T11:18:56.449Z,974.62
2022-07-28T11:20:25.249Z,974.66
2022-07-28T11:21:00.521Z,974.59
2022-07-28T11:21:56.437Z,974.62
2022-07-28T11:22:56.389Z,974.59
2022-07-28T11:23:56.386Z,974.73
2022-07-28T11:24:56.373Z,974.51
2022-07-28T11:25:56.356Z,974.49
2022-07-28T11:26:58.914Z,974.55
2022-07-28T11:27:56.327Z,974.59
2022-07-28T11:28:56.336Z,974.59
2022-07-28T11:29:56.325Z,974.62
2022-07-28T11:30:56.377Z,974.58
2022-07-28T11:31:56.339Z,974.51
2022-07-28T11:32:56.276Z,974.49
2022-07-28T11:33:56.261Z,974.50
2022-07-28T11:34:56.307Z,974.46
2022-07-28T11:35:56.233Z,974.55
2022-07-28T11:36:56.291Z,974.54
2022-07-28T11:37:56.259Z,974.50
2022-07-28T11:38:56.197Z,974.47
2022-07-28T11:39:56.242Z,974.50
2022-07-28T11:40:56.570Z,974.47
2022-07-28T11:41:56.159Z,974.45
2022-07-28T11:42:56.197Z,974.45
2022-07-28T11:43:56.152Z,974.43
2022-07-28T11:44:56.140Z,974.40
2022-07-28T11:45:56.583Z,974.40
2022-07-28T11:46:56.160Z,974.46
2022-07-28T11:47:56.127Z,974.41
2022-07-28T11:48:56.145Z,974.40
2022-07-28T11:49:56.395Z,974.37
2022-07-28T11:50:56.082Z,974.36
2022-07-28T11:51:56.058Z,974.39
2022-07-28T11:52:56.060Z,974.33
2022-07-28T11:53:56.061Z,974.34
2022-07-28T11:54:56.028Z,974.31
2022-07-28T11:56:02.692Z,974.32
2022-07-28T11:56:55.999Z,974.33
2022-07-28T11:57:56.033Z,974.35
2022-07-28T11:58:55.998Z,974.39
2022-07-28T11:59:55.986Z,974.32
2022-07-28T12:00:55.988Z,974.31
2022-07-28T12:01:56.036Z,974.33
2022-07-28T12:02:55.997Z,974.26
2022-07-28T12:03:56.777Z,974.16
2022-07-28T12:04:56.013Z,974.18
2022-07-28T12:05:55.913Z,974.17
2022-07-28T12:06:55.916Z,974.16
2022-07-28T12:07:55.924Z,974.18
2022-07-28T12:08:55.937Z,974.18
2022-07-28T12:09:55.868Z,974.17
2022-07-28T12:10:56.376Z,974.13
2022-07-28T12:11:55.911Z,974.10
2022-07-28T12:12:55.880Z,974.14
2022-07-28T12:13:55.836Z,974.09
2022-07-28T12:14:55.837Z,974.15
2022-07-28T12:15:55.794Z,974.24
2022-07-28T12:16:55.822Z,974.26
2022-07-28T12:17:55.851Z,974.23
2022-07-28T12:18:55.789Z,974.14
2022-07-28T12:19:55.762Z,974.13
2022-07-28T12:20:56.068Z,974.14
2022-07-28T12:21:55.737Z,974.22
2022-07-28T12:22:55.812Z,974.22
2022-07-28T12:23:55.722Z,974.16
2022-07-28T12:24:55.723Z,974.15
2022-07-28T12:25:55.701Z,974.14
2022-07-28T12:26:56.677Z,974.12
2022-07-28T12:27:55.809Z,974.08
2022-07-28T12:28:55.715Z,974.10
2022-07-28T12:29:56.524Z,974.08
2022-07-28T12:30:56.231Z,974.08
2022-07-28T12:31:55.895Z,974.01
2022-07-28T12:32:55.616Z,973.95
2022-07-28T12:33:55.634Z,973.98
2022-07-28T12:34:55.627Z,973.97
2022-07-28T12:35:56.253Z,974.02
2022-07-28T12:36:55.604Z,974.01
2022-07-28T12:37:55.558Z,974.00
2022-07-28T12:38:55.583Z,974.03
2022-07-28T12:39:55.559Z,973.99
2022-07-28T12:40:55.560Z,974.02
2022-07-28T12:41:55.550Z,974.03
2022-07-28T12:42:55.559Z,973.98
2022-07-28T12:43:55.557Z,973.97
2022-07-28T12:44:56.102Z,973.99